CheckWX is a tool to help pilots better visualize weather data.  It is not intended as a substitute for an official pre-flight weather briefing.

02:18:01 UTC

KDIJ METAR
Driggs-Reed Memorial Airport
Driggs, Idaho, USA
Current

22 mins ago

KDIJ 160156Z AUTO 16017G29KT 10SM BKN100 18/08 A3014 RMK AO2 PK WND 16029/0147 WSHFT 0138 SLP147 T01830078 $
Observed
Jul-16 @ 01:56 UTC
Wind
  • 160° at 17 KTS
  • Gusting to 29 KTS
Visibility
10 SM
Flight Rules
VFR
Cloud Levels
  • Broken at 10,000' AGL
Temperature
18°C / 64°F
Dewpoint
C / 46°F
Humidity
52%
Altimeter
30.14" Hg
Pressure
1020.62 hPa
Previous

1 hour ago

KDIJ 160056Z AUTO 26013G19KT 10SM SCT120 26/04 A3012 RMK AO2 SLP132 T02610039 $
Observed
Jul-16 @ 00:56 UTC
Wind
  • 260° at 13 KTS
  • Gusting to 19 KTS
Visibility
10 SM
Flight Rules
VFR
Cloud Levels
  • Scattered at 12,000' AGL
Temperature
26°C / 79°F
Dewpoint
C / 39°F
Humidity
24%
Altimeter
30.12" Hg
Pressure
1020.02 hPa
Previous

2 hours ago

KDIJ 152356Z AUTO 24009G16KT 10SM CLR 27/04 A3012 RMK AO2 SLP131 T02720044 10283 20222 55008 $
Observed
Jul-15 @ 23:56 UTC
Wind
  • 240° at 9 KTS
  • Gusting to 16 KTS
Visibility
10 SM
Flight Rules
VFR
Cloud Levels
  • Clear skies
Temperature
27°C / 81°F
Dewpoint
C / 39°F
Humidity
23%
Altimeter
30.12" Hg
Pressure
1020.02 hPa